Time;durP1;ratioP1;P1;durP2;ratioP2;P2;SDS_P1;SDS_P2;PMS_P1;PMS_P2;Temp;Humidity;BMP_temperature;BMP_pressure;BME280_temperature;BME280_humidity;BME280_pressure;Samples;Min_cycle;Max_cycle;Signal;HPM_P1;HPM_P2
2023/09/12 00:00:54;;;;;;;;;2.25;2.25;;;;;22.27;59.19;100672.41;5074223;27;46311;-75
2023/09/12 00:03:21;;;;;;;;;6.50;4.75;;;;;22.30;59.04;100672.19;5077424;28;45239;-75
2023/09/12 00:05:58;;;;;;;;;7.75;3.75;;;;;22.27;59.15;100673.25;5068953;28;45395;-74
2023/09/12 00:08:23;;;;;;;;;4.75;4.75;;;;;22.26;59.77;100676.88;5063477;28;45376;-75
2023/09/12 00:11:09;;;;;;;;;4.50;3.00;;;;;22.14;59.40;100657.31;5081283;27;46231;-75
2023/09/12 00:13:35;;;;;;;;;6.00;4.75;;;;;22.26;59.68;100681.34;5069572;28;45388;-74
2023/09/12 00:16:10;;;;;;;;;5.00;5.00;;;;;22.07;59.97;100655.25;5077403;27;51568;-76
2023/09/12 00:18:37;;;;;;;;;5.25;4.00;;;;;22.18;59.94;100689.91;5055248;28;45481;-75
2023/09/12 00:21:02;;;;;;;;;4.25;4.00;;;;;22.12;59.73;100671.75;5082659;27;45541;-75
2023/09/12 00:23:28;;;;;;;;;8.25;3.75;;;;;22.10;59.81;100676.34;5080826;27;45369;-75
2023/09/12 00:25:53;;;;;;;;;5.75;5.00;;;;;22.10;59.91;100674.53;5061470;28;45439;-75
2023/09/12 00:28:19;;;;;;;;;6.25;4.50;;;;;22.05;59.98;100681.19;5079903;27;45605;-76
2023/09/12 00:30:45;;;;;;;;;8.25;4.25;;;;;22.02;60.15;100684.91;5069116;27;46655;-76
2023/09/12 00:33:10;;;;;;;;;4.75;4.25;;;;;21.96;60.08;100680.91;5066122;27;63760;-75
2023/09/12 00:35:35;;;;;;;;;5.25;5.25;;;;;21.86;60.43;100677.22;5059074;28;59437;-75
2023/09/12 00:38:01;;;;;;;;;5.50;5.25;;;;;21.87;60.59;100686.94;5082681;27;45511;-75
2023/09/12 00:40:26;;;;;;;;;5.75;5.75;;;;;21.88;60.94;100695.75;5085366;27;46629;-77
2023/09/12 00:42:52;;;;;;;;;6.25;5.00;;;;;21.84;60.66;100686.31;5082161;28;67406;-76
2023/09/12 00:45:17;;;;;;;;;6.50;4.25;;;;;21.81;60.69;100687.38;5075912;28;59266;-76
2023/09/12 00:47:42;;;;;;;;;5.00;3.25;;;;;21.78;61.08;100680.47;5071853;28;60915;-75
2023/09/12 00:50:08;;;;;;;;;5.00;4.00;;;;;21.76;60.99;100682.41;5055795;28;74411;-75
2023/09/12 00:52:35;;;;;;;;;6.50;5.00;;;;;21.72;60.91;100672.09;5072868;27;45480;-74
2023/09/12 00:55:00;;;;;;;;;6.00;4.50;;;;;21.72;61.59;100669.44;5067714;28;45346;-75
2023/09/12 00:57:26;;;;;;;;;4.50;3.75;;;;;21.73;61.52;100671.13;5072315;28;54512;-75
2023/09/12 00:59:53;;;;;;;;;6.75;4.50;;;;;21.70;61.95;100672.22;5065756;28;47503;-74
2023/09/12 01:02:19;;;;;;;;;6.25;5.50;;;;;21.70;61.95;100677.53;5070876;27;60796;-75
2023/09/12 01:04:45;;;;;;;;;7.75;6.75;;;;;21.70;61.91;100669.53;5067417;28;45548;-75
2023/09/12 01:07:11;;;;;;;;;6.00;4.75;;;;;21.69;61.94;100673.19;5076542;28;45896;-76
2023/09/12 01:09:36;;;;;;;;;10.75;7.00;;;;;21.70;61.70;100680.19;5053038;28;46319;-75
2023/09/12 01:12:04;;;;;;;;;8.75;6.00;;;;;21.69;61.59;100680.31;5058666;28;73372;-76
2023/09/12 01:14:30;;;;;;;;;7.25;7.00;;;;;21.69;61.67;100677.63;5073816;28;45485;-75
2023/09/12 01:16:56;;;;;;;;;7.75;5.00;;;;;21.64;61.85;100675.34;5072937;27;45598;-75
2023/09/12 01:19:21;;;;;;;;;11.75;6.75;;;;;21.66;61.81;100678.72;5057471;28;48165;-74
2023/09/12 01:21:47;;;;;;;;;8.75;5.00;;;;;21.65;62.10;100670.84;5056431;28;66208;-74
2023/09/12 01:24:24;;;;;;;;;6.33;6.33;;;;;21.64;62.08;100675.34;5095030;27;45393;-75
2023/09/12 01:27:18;;;;;;;;;8.00;6.75;;;;;21.57;62.29;100660.78;5066316;28;45270;-75
2023/09/12 01:29:45;;;;;;;;;6.50;6.50;;;;;21.56;62.61;100662.56;5080868;27;47066;-75
2023/09/12 01:32:12;;;;;;;;;8.00;6.00;;;;;21.54;62.64;100656.53;5061374;28;45702;-75
2023/09/12 01:34:39;;;;;;;;;8.25;6.75;;;;;21.52;62.54;100661.13;5052425;28;45309;-75
2023/09/12 01:37:05;;;;;;;;;7.00;5.25;;;;;21.47;62.66;100663.28;5069488;28;45482;-75
2023/09/12 01:39:31;;;;;;;;;9.00;6.00;;;;;21.42;62.92;100671.59;5065443;28;45407;-75
2023/09/12 01:41:58;;;;;;;;;9.00;7.25;;;;;21.41;63.66;100680.53;5067492;27;45445;-75
2023/09/12 01:44:25;;;;;;;;;9.75;8.25;;;;;21.39;63.04;100685.13;5062623;28;52935;-75
2023/09/12 01:46:52;;;;;;;;;7.00;7.00;;;;;21.38;63.37;100682.56;5067343;28;45344;-75
2023/09/12 01:49:19;;;;;;;;;6.25;6.25;;;;;21.36;63.57;100680.00;5071210;28;46890;-75
2023/09/12 01:51:45;;;;;;;;;9.50;6.50;;;;;21.33;63.68;100677.56;5053204;28;45945;-75
2023/09/12 01:54:10;;;;;;;;;8.00;8.00;;;;;21.35;64.13;100672.13;5042611;28;57741;-76
2023/09/12 01:56:36;;;;;;;;;7.75;6.25;;;;;21.38;63.38;100667.44;5050815;28;57336;-76
2023/09/12 01:59:02;;;;;;;;;10.50;7.25;;;;;21.37;63.73;100672.84;5071632;28;74888;-76
2023/09/12 02:01:27;;;;;;;;;8.00;8.00;;;;;21.39;63.91;100674.47;5071533;27;45787;-75
2023/09/12 02:03:53;;;;;;;;;7.00;6.00;;;;;21.38;63.77;100683.41;5064759;28;45316;-75
2023/09/12 02:06:18;;;;;;;;;8.00;7.50;;;;;21.40;63.57;100692.13;5067306;28;45581;-75
2023/09/12 02:08:44;;;;;;;;;5.00;3.25;;;;;21.36;63.72;100688.00;5073235;28;63472;-74
2023/09/12 02:11:09;;;;;;;;;7.75;6.00;;;;;21.32;63.85;100690.97;5077985;27;57882;-73
2023/09/12 02:13:34;;;;;;;;;8.50;8.25;;;;;21.24;63.95;100683.56;5060430;28;45438;-75
2023/09/12 02:16:01;;;;;;;;;8.75;7.00;;;;;21.17;64.69;100685.81;5075163;28;45425;-75
2023/09/12 02:18:26;;;;;;;;;12.00;8.50;;;;;21.11;65.47;100688.94;5071161;27;47097;-75
2023/09/12 02:20:51;;;;;;;;;11.25;8.25;;;;;21.03;64.78;100689.50;5079184;27;45319;-75
2023/09/12 02:23:17;;;;;;;;;9.75;9.75;;;;;20.97;65.20;100681.09;5079215;27;67207;-75
2023/09/12 02:25:44;;;;;;;;;14.75;9.25;;;;;20.96;64.92;100676.72;5073509;28;45261;-74
2023/09/12 02:28:09;;;;;;;;;11.00;8.50;;;;;20.94;65.63;100678.63;5079529;28;46951;-74
2023/09/12 02:30:38;;;;;;;;;9.75;9.00;;;;;20.91;65.62;100674.41;5078210;27;67849;-74
2023/09/12 02:33:04;;;;;;;;;9.25;8.00;;;;;20.85;65.65;100681.00;5063236;28;45557;-75
2023/09/12 02:35:29;;;;;;;;;10.00;9.50;;;;;20.82;65.96;100677.69;5069605;28;68127;-77
2023/09/12 02:37:55;;;;;;;;;12.50;9.50;;;;;20.79;66.52;100686.75;5069459;28;45757;-76
2023/09/12 02:40:20;;;;;;;;;13.75;8.50;;;;;20.76;65.79;100675.50;5054401;27;46564;-75
2023/09/12 02:42:45;;;;;;;;;15.00;11.00;;;;;20.76;66.32;100680.81;5057668;28;45339;-75
2023/09/12 02:45:11;;;;;;;;;11.25;10.50;;;;;20.71;66.74;100677.63;5065228;28;54537;-74
2023/09/12 02:47:36;;;;;;;;;17.75;10.50;;;;;20.66;66.59;100681.47;5053039;28;63611;-74
2023/09/12 02:50:02;;;;;;;;;10.75;9.50;;;;;20.66;67.07;100676.13;5075580;28;45402;-74
2023/09/12 02:52:27;;;;;;;;;10.25;9.00;;;;;20.61;67.21;100672.06;5073161;27;45384;-74
2023/09/12 02:54:52;;;;;;;;;12.25;10.75;;;;;20.63;67.24;100664.88;5070751;28;59544;-74
2023/09/12 02:57:18;;;;;;;;;12.75;9.25;;;;;20.61;67.02;100656.09;5065848;28;45485;-74
2023/09/12 02:59:44;;;;;;;;;10.00;8.75;;;;;20.61;67.44;100661.41;5069199;28;68087;-74
2023/09/12 03:02:10;;;;;;;;;11.00;8.75;;;;;20.60;67.58;100665.88;5062960;28;45434;-75
2023/09/12 03:04:36;;;;;;;;;13.50;10.50;;;;;20.60;68.07;100660.56;5076878;28;61431;-74
2023/09/12 03:07:02;;;;;;;;;17.75;10.00;;;;;20.62;67.18;100656.03;5075399;28;45372;-75
2023/09/12 03:09:27;;;;;;;;;14.00;11.00;;;;;20.66;67.27;100667.28;5077300;28;45501;-74
2023/09/12 03:11:52;;;;;;;;;15.75;10.25;;;;;20.67;67.88;100661.03;5055177;28;45561;-75
2023/09/12 03:14:18;;;;;;;;;12.50;11.50;;;;;20.71;67.77;100666.97;5075634;27;45275;-75
2023/09/12 03:16:43;;;;;;;;;12.25;9.25;;;;;20.66;67.38;100667.28;5069251;27;54783;-75
2023/09/12 03:19:08;;;;;;;;;12.50;11.25;;;;;20.70;68.16;100670.59;5071645;27;67029;-74
2023/09/12 03:21:34;;;;;;;;;18.00;13.75;;;;;20.68;67.23;100668.03;5078625;27;45470;-75
2023/09/12 03:23:59;;;;;;;;;11.50;10.75;;;;;20.61;67.17;100664.97;5062004;28;45591;-75
2023/09/12 03:26:26;;;;;;;;;11.50;10.00;;;;;20.63;67.62;100681.66;5078307;28;46578;-75
2023/09/12 03:28:51;;;;;;;;;16.75;12.00;;;;;20.58;67.76;100675.78;5089550;27;45740;-75
2023/09/12 03:31:18;;;;;;;;;17.25;11.50;;;;;20.55;67.66;100675.16;5051440;27;45337;-75
2023/09/12 03:33:49;;;;;;;;;16.50;12.00;;;;;20.56;67.99;100680.38;5053922;28;45891;-75
2023/09/12 03:36:14;;;;;;;;;18.25;14.00;;;;;20.55;68.22;100683.97;5077760;27;47324;-75
2023/09/12 03:38:40;;;;;;;;;13.75;10.75;;;;;20.57;68.10;100690.03;5074342;28;45426;-75
2023/09/12 03:41:05;;;;;;;;;13.75;11.25;;;;;20.55;68.47;100699.09;5069795;27;65776;-74
2023/09/12 03:43:32;;;;;;;;;15.00;13.50;;;;;20.51;68.32;100693.13;5071687;27;63918;-75
2023/09/12 03:45:57;;;;;;;;;17.75;12.00;;;;;20.47;68.48;100689.84;5066888;27;47137;-75
2023/09/12 03:48:22;;;;;;;;;13.00;11.25;;;;;20.43;68.55;100688.34;5067126;27;69149;-75
2023/09/12 03:50:48;;;;;;;;;15.50;12.50;;;;;20.39;68.63;100694.81;5076454;27;45415;-74
2023/09/12 03:53:14;;;;;;;;;13.25;11.25;;;;;20.31;68.98;100694.50;5079539;27;54399;-74
2023/09/12 03:55:40;;;;;;;;;17.75;12.50;;;;;20.32;68.56;100698.00;5071011;27;47010;-75
2023/09/12 03:58:05;;;;;;;;;13.00;10.75;;;;;20.29;69.64;100696.41;5080190;28;45466;-75
2023/09/12 04:00:30;;;;;;;;;16.00;12.00;;;;;20.28;68.87;100694.72;5076846;27;69248;-74
2023/09/12 04:02:56;;;;;;;;;16.50;14.75;;;;;20.27;68.82;100704.50;5070414;28;69711;-74
2023/09/12 04:05:21;;;;;;;;;16.25;13.25;;;;;20.24;69.23;100710.03;5071600;27;46214;-75
2023/09/12 04:07:47;;;;;;;;;17.50;13.00;;;;;20.25;69.30;100721.50;5081043;27;70023;-75
2023/09/12 04:10:12;;;;;;;;;19.00;13.50;;;;;20.23;69.28;100710.97;5072736;27;50799;-75
2023/09/12 04:12:37;;;;;;;;;18.50;13.25;;;;;20.25;69.31;100711.69;5076187;27;45388;-76
2023/09/12 04:15:03;;;;;;;;;18.25;13.25;;;;;20.19;69.16;100704.16;5069911;28;45427;-75
2023/09/12 04:17:28;;;;;;;;;16.00;12.75;;;;;20.21;69.69;100696.94;5067326;28;45659;-76
2023/09/12 04:19:54;;;;;;;;;19.25;15.25;;;;;20.10;70.44;100694.16;5088549;28;66273;-75
2023/09/12 04:22:19;;;;;;;;;16.75;14.75;;;;;20.04;70.55;100689.25;5092296;27;48679;-74
2023/09/12 04:24:44;;;;;;;;;17.75;15.50;;;;;20.04;70.85;100699.88;5080491;27;63204;-74
2023/09/12 04:27:10;;;;;;;;;15.50;11.00;;;;;20.01;70.59;100697.41;5074921;28;45283;-74
2023/09/12 04:29:35;;;;;;;;;17.00;14.75;;;;;20.02;71.35;100707.94;5060979;27;57734;-74
2023/09/12 04:32:04;;;;;;;;;19.25;15.50;;;;;20.01;71.27;100713.34;5073810;28;45500;-74
2023/09/12 04:34:30;;;;;;;;;19.75;16.75;;;;;19.98;71.99;100714.44;5077804;27;46058;-72
2023/09/12 04:36:55;;;;;;;;;18.75;14.25;;;;;19.96;71.82;100719.00;5078512;28;45530;-72
2023/09/12 04:39:21;;;;;;;;;24.00;16.25;;;;;19.92;71.58;100710.38;5061602;28;45368;-72
2023/09/12 04:41:46;;;;;;;;;22.25;17.00;;;;;19.97;71.75;100718.03;5050443;28;45495;-72
2023/09/12 04:44:14;;;;;;;;;21.00;14.75;;;;;19.99;71.83;100715.25;5079347;27;68477;-72
2023/09/12 04:46:39;;;;;;;;;18.00;11.75;;;;;20.00;71.72;100722.28;5074958;27;45351;-72
2023/09/12 04:49:05;;;;;;;;;19.25;13.00;;;;;20.05;71.64;100720.19;5070308;28;62610;-72
2023/09/12 04:51:30;;;;;;;;;20.50;16.75;;;;;20.01;71.44;100719.53;5074119;28;45232;-71
2023/09/12 04:53:55;;;;;;;;;20.00;16.50;;;;;20.05;71.71;100717.53;5068085;28;46249;-72
2023/09/12 04:56:24;;;;;;;;;18.25;14.50;;;;;20.13;71.45;100725.81;5080955;27;57048;-72
2023/09/12 04:58:49;;;;;;;;;19.50;13.25;;;;;20.13;71.51;100727.63;5072976;27;45466;-71
2023/09/12 05:01:15;;;;;;;;;25.75;16.50;;;;;20.11;71.39;100730.38;5071424;27;45438;-71
2023/09/12 05:03:40;;;;;;;;;23.50;17.75;;;;;20.07;70.94;100724.44;5067098;28;45651;-71
2023/09/12 05:06:05;;;;;;;;;16.50;16.25;;;;;20.09;71.23;100727.81;5075834;28;55189;-71
2023/09/12 05:08:30;;;;;;;;;15.50;13.50;;;;;20.07;71.35;100713.81;5089548;27;51091;-71
2023/09/12 05:10:56;;;;;;;;;24.50;17.25;;;;;20.03;71.29;100714.13;5069964;28;68131;-72
2023/09/12 05:13:21;;;;;;;;;21.50;15.00;;;;;19.98;71.32;100706.47;5069044;27;64750;-71
2023/09/12 05:15:47;;;;;;;;;17.75;16.25;;;;;19.93;71.83;100711.22;5060807;28;71884;-71
2023/09/12 05:18:12;;;;;;;;;23.50;18.75;;;;;19.90;71.73;100712.28;5078246;28;45269;-71
2023/09/12 05:20:38;;;;;;;;;17.25;15.00;;;;;19.87;71.62;100714.31;5077952;28;45415;-71
2023/09/12 05:23:03;;;;;;;;;19.75;15.75;;;;;19.84;72.44;100728.63;5071168;27;47607;-70
2023/09/12 05:25:29;;;;;;;;;17.25;12.00;;;;;19.81;72.08;100728.81;5066744;28;62680;-70
2023/09/12 05:27:55;;;;;;;;;19.25;15.50;;;;;19.78;72.37;100741.44;5070571;28;45518;-71
2023/09/12 05:30:20;;;;;;;;;20.25;15.75;;;;;19.77;72.42;100743.25;5066961;28;45440;-71
2023/09/12 05:32:46;;;;;;;;;18.75;16.50;;;;;19.78;72.15;100750.28;5075933;28;46167;-71
2023/09/12 05:35:11;;;;;;;;;24.00;17.00;;;;;19.77;72.03;100748.56;5067454;28;71389;-71
2023/09/12 05:37:36;;;;;;;;;18.75;16.50;;;;;19.77;72.14;100732.63;5073523;28;54021;-69
2023/09/12 05:40:03;;;;;;;;;19.00;17.75;;;;;19.77;72.27;100739.75;5068920;27;69307;-70
2023/09/12 05:42:28;;;;;;;;;22.25;19.00;;;;;19.80;71.95;100743.06;5066925;27;45458;-71
2023/09/12 05:44:53;;;;;;;;;20.00;19.25;;;;;19.81;72.27;100751.88;5068829;27;57991;-70
2023/09/12 05:47:19;;;;;;;;;20.50;14.00;;;;;19.80;72.04;100743.06;5066879;28;45158;-69
2023/09/12 05:49:45;;;;;;;;;18.50;17.25;;;;;19.83;72.37;100736.69;5075343;27;45466;-69
2023/09/12 05:52:11;;;;;;;;;17.50;14.25;;;;;19.82;71.89;100737.66;5049185;28;45533;-68
2023/09/12 05:54:36;;;;;;;;;19.00;14.50;;;;;19.77;71.75;100737.94;5067712;28;45329;-68
2023/09/12 05:57:02;;;;;;;;;25.25;18.75;;;;;19.82;72.27;100741.16;5075549;28;45416;-69
2023/09/12 05:59:27;;;;;;;;;18.25;17.75;;;;;19.82;71.87;100730.53;5067472;28;45546;-68
2023/09/12 06:01:53;;;;;;;;;23.50;16.50;;;;;19.82;72.04;100735.84;5074527;28;45581;-68
2023/09/12 06:04:19;;;;;;;;;26.75;21.75;;;;;19.86;72.01;100734.69;5071765;28;45371;-69
2023/09/12 06:06:45;;;;;;;;;24.75;19.75;;;;;19.90;71.54;100736.19;5073015;28;46259;-68
2023/09/12 06:09:10;;;;;;;;;26.25;23.75;;;;;19.90;71.73;100741.50;5074824;27;45365;-69
2023/09/12 06:11:36;;;;;;;;;22.25;19.00;;;;;19.86;71.87;100742.63;5068656;28;61077;-68
2023/09/12 06:14:01;;;;;;;;;27.25;20.50;;;;;19.85;71.66;100756.06;5065312;28;68498;-67
2023/09/12 06:16:26;;;;;;;;;27.00;18.75;;;;;19.88;71.91;100750.50;5073547;28;60602;-67
2023/09/12 06:18:53;;;;;;;;;23.00;19.25;;;;;19.87;71.77;100747.00;5066270;27;69859;-67
2023/09/12 06:21:20;;;;;;;;;20.50;17.50;;;;;19.90;71.79;100764.53;5064894;27;45791;-67
2023/09/12 06:23:46;;;;;;;;;33.50;20.00;;;;;19.91;71.76;100761.78;5071320;27;46140;-67
2023/09/12 06:26:12;;;;;;;;;24.50;20.00;;;;;19.92;71.84;100763.50;5069511;27;45394;-69
2023/09/12 06:28:37;;;;;;;;;25.00;19.00;;;;;19.90;71.84;100762.75;5073461;27;45344;-67
2023/09/12 06:31:02;;;;;;;;;26.00;20.50;;;;;19.83;71.77;100753.50;5067428;28;45430;-70
2023/09/12 06:33:28;;;;;;;;;28.75;20.00;;;;;19.90;72.16;100753.91;5072296;28;62264;-74
2023/09/12 06:35:54;;;;;;;;;20.75;17.50;;;;;19.96;72.25;100760.66;5054194;28;45448;-72
2023/09/12 06:38:20;;;;;;;;;20.50;19.50;;;;;19.96;72.14;100769.47;5057928;28;45487;-74
2023/09/12 06:40:48;;;;;;;;;19.25;18.00;;;;;19.97;71.92;100765.00;5067081;28;46615;-73
2023/09/12 06:43:14;;;;;;;;;26.00;17.75;;;;;19.95;72.10;100757.13;5059635;28;45249;-72
2023/09/12 06:45:43;;;;;;;;;18.75;18.25;;;;;20.05;72.10;100755.56;5060722;28;45475;-73
2023/09/12 06:48:08;;;;;;;;;21.50;18.00;;;;;20.14;72.22;100747.94;5075500;28;45468;-74
2023/09/12 06:50:34;;;;;;;;;22.75;18.25;;;;;20.14;71.36;100751.44;5074426;28;45445;-74
2023/09/12 06:52:59;;;;;;;;;14.00;14.00;;;;;20.13;71.47;100756.84;5075794;28;45414;-73
2023/09/12 06:55:24;;;;;;;;;22.75;19.00;;;;;20.15;71.18;100754.94;5047797;28;45403;-72
2023/09/12 06:57:50;;;;;;;;;23.75;18.75;;;;;20.20;71.63;100748.41;5073428;27;59247;-71
2023/09/12 07:00:16;;;;;;;;;21.25;16.50;;;;;20.26;71.26;100755.94;5064640;28;48618;-70
2023/09/12 07:02:42;;;;;;;;;24.25;16.00;;;;;20.27;70.88;100752.34;5071191;28;45356;-74
2023/09/12 07:05:07;;;;;;;;;18.50;17.75;;;;;20.28;71.09;100761.16;5073697;28;45628;-70
2023/09/12 07:07:33;;;;;;;;;26.75;20.25;;;;;20.24;70.86;100760.50;5070020;28;45540;-72
2023/09/12 07:09:59;;;;;;;;;21.50;16.50;;;;;20.23;70.95;100756.13;5074926;28;59109;-76
2023/09/12 07:12:25;;;;;;;;;18.75;15.00;;;;;20.31;70.94;100755.63;5069867;28;45954;-72
2023/09/12 07:14:51;;;;;;;;;20.50;16.75;;;;;20.40;70.39;100762.13;5075989;28;45476;-75
2023/09/12 07:17:17;;;;;;;;;21.25;18.00;;;;;20.42;70.79;100763.72;5061726;28;45550;-76
2023/09/12 07:19:43;;;;;;;;;20.00;15.50;;;;;20.47;70.46;100774.06;5070022;28;45776;-79
2023/09/12 07:22:08;;;;;;;;;19.25;15.50;;;;;20.50;70.30;100773.81;5070830;28;45331;-75
2023/09/12 07:24:33;;;;;;;;;17.75;15.00;;;;;20.53;70.14;100773.63;5076602;27;61232;-76
2023/09/12 07:26:59;;;;;;;;;27.50;16.50;;;;;20.53;69.62;100768.31;5075080;27;68469;-76
2023/09/12 07:29:24;;;;;;;;;16.75;15.50;;;;;20.53;69.67;100770.13;5060987;28;46896;-71
2023/09/12 07:31:53;;;;;;;;;19.00;16.25;;;;;20.54;69.76;100763.84;5077474;28;45453;-72
2023/09/12 07:34:18;;;;;;;;;21.25;15.50;;;;;20.61;69.63;100767.78;5076287;27;45846;-73
2023/09/12 07:36:44;;;;;;;;;21.50;17.25;;;;;20.65;69.45;100780.78;5075224;28;45665;-73
2023/09/12 07:39:10;;;;;;;;;19.75;14.25;;;;;20.66;69.19;100771.00;5060075;28;51481;-72
2023/09/12 07:41:36;;;;;;;;;14.50;13.25;;;;;20.70;69.11;100772.50;5069850;27;45805;-73
2023/09/12 07:44:04;;;;;;;;;19.25;14.00;;;;;20.72;68.73;100780.38;5069061;27;60419;-74
2023/09/12 07:46:30;;;;;;;;;14.50;11.25;;;;;20.71;68.99;100787.50;5078925;28;45563;-76
2023/09/12 07:48:55;;;;;;;;;17.50;15.00;;;;;20.70;69.17;100788.47;5077633;28;45543;-75
2023/09/12 07:51:22;;;;;;;;;13.25;10.50;;;;;20.73;68.87;100787.38;5069204;28;45409;-76
2023/09/12 07:53:48;;;;;;;;;12.00;10.00;;;;;20.72;68.97;100788.38;5075227;28;45412;-75
2023/09/12 07:56:13;;;;;;;;;16.50;13.00;;;;;20.69;69.00;100769.97;5078432;28;73237;-74
2023/09/12 07:58:38;;;;;;;;;15.25;12.75;;;;;20.63;68.24;100777.41;5070822;28;46109;-75
2023/09/12 08:01:09;;;;;;;;;16.50;12.50;;;;;20.64;68.94;100779.06;5068735;28;45863;-75
2023/09/12 08:03:36;;;;;;;;;20.50;15.00;;;;;20.61;68.80;100779.31;5062593;28;45396;-75
2023/09/12 08:06:02;;;;;;;;;12.25;11.25;;;;;20.60;68.32;100780.22;5066409;27;45410;-74
2023/09/12 08:08:28;;;;;;;;;16.00;12.00;;;;;20.62;68.42;100786.31;5071825;28;45423;-74
2023/09/12 08:10:53;;;;;;;;;14.00;9.25;;;;;20.59;68.31;100775.88;5061878;28;45974;-75
2023/09/12 08:13:19;;;;;;;;;16.75;11.75;;;;;20.54;68.93;100782.44;5055536;28;46328;-75
2023/09/12 08:15:44;;;;;;;;;14.50;11.50;;;;;20.50;68.79;100781.81;5073315;27;46086;-76
2023/09/12 08:18:10;;;;;;;;;14.00;11.25;;;;;20.52;68.93;100781.69;5071576;28;46091;-79
2023/09/12 08:20:35;;;;;;;;;21.25;15.75;;;;;20.59;68.61;100793.63;5055388;28;45722;-80
2023/09/12 08:23:02;;;;;;;;;16.00;13.00;;;;;20.61;68.76;100795.25;5080504;27;45453;-81
2023/09/12 08:25:27;;;;;;;;;15.00;10.25;;;;;20.67;68.61;100800.16;5062309;27;45468;-78
2023/09/12 08:27:53;;;;;;;;;17.50;10.50;;;;;20.67;68.13;100796.66;5074144;27;54908;-71
2023/09/12 08:30:18;;;;;;;;;10.00;9.00;;;;;20.69;67.97;100797.38;5073570;28;73060;-72
2023/09/12 08:32:43;;;;;;;;;19.50;13.25;;;;;20.76;67.97;100805.81;5072844;28;45440;-72
2023/09/12 08:35:13;;;;;;;;;14.50;11.75;;;;;20.77;68.34;100794.19;5072229;27;50163;-71
2023/09/12 08:37:42;;;;;;;;;11.00;9.25;;;;;20.80;68.07;100791.34;5071390;27;46356;-72
2023/09/12 08:40:10;;;;;;;;;15.75;11.75;;;;;20.89;67.74;100795.16;5069903;28;46041;-72
2023/09/12 08:42:43;;;;;;;;;12.25;12.00;;;;;20.93;67.40;100780.69;5079938;27;45313;-73
2023/09/12 08:45:18;;;;;;;;;11.25;9.00;;;;;20.97;67.09;100782.19;5078695;27;45565;-72
2023/09/12 08:47:55;;;;;;;;;14.00;11.50;;;;;21.12;67.19;100796.22;5062356;28;47376;-71
2023/09/12 08:50:23;;;;;;;;;11.50;10.50;;;;;21.18;67.13;100803.78;5065750;28;45312;-72
2023/09/12 08:52:48;;;;;;;;;13.00;9.50;;;;;21.24;66.53;100808.66;5081626;28;46449;-70
2023/09/12 08:55:14;;;;;;;;;13.25;8.00;;;;;21.31;66.98;100801.09;5077830;27;45445;-73
2023/09/12 08:57:41;;;;;;;;;17.00;12.25;;;;;21.36;66.45;100794.47;5071725;28;45581;-73
2023/09/12 09:00:14;;;;;;;;;17.50;16.00;;;;;21.42;66.39;100801.16;5064069;28;45372;-73
2023/09/12 09:02:43;;;;;;;;;17.25;13.00;;;;;21.47;66.00;100801.72;5064859;28;45267;-73
2023/09/12 09:05:10;;;;;;;;;14.25;13.25;;;;;21.50;66.00;100798.84;5083657;27;45550;-74
2023/09/12 09:07:37;;;;;;;;;18.75;14.25;;;;;21.52;66.07;100796.06;5079348;28;45351;-71
2023/09/12 09:10:05;;;;;;;;;12.25;10.75;;;;;21.53;65.58;100790.66;5080839;28;45446;-72
2023/09/12 09:12:30;;;;;;;;;15.25;13.50;;;;;21.55;66.01;100801.19;5080219;28;45429;-72
2023/09/12 09:14:56;;;;;;;;;13.00;10.50;;;;;21.52;65.50;100796.06;5072758;28;45457;-71
2023/09/12 09:17:21;;;;;;;;;14.25;13.00;;;;;21.52;65.66;100796.91;5080614;27;45494;-76
2023/09/12 09:19:47;;;;;;;;;9.00;8.00;;;;;21.56;65.83;100802.88;5057814;28;58027;-73
2023/09/12 09:22:13;;;;;;;;;11.00;9.50;;;;;21.57;65.81;100797.44;5079738;28;45925;-73
2023/09/12 09:24:38;;;;;;;;;13.00;13.00;;;;;21.53;65.27;100792.44;5072745;27;45486;-74
2023/09/12 09:27:04;;;;;;;;;11.25;9.75;;;;;21.54;65.48;100800.31;5071576;27;47047;-73
2023/09/12 09:29:31;;;;;;;;;14.25;9.75;;;;;21.56;65.01;100792.22;5063521;28;45545;-71
2023/09/12 09:31:58;;;;;;;;;13.00;10.75;;;;;21.57;65.58;100794.78;5072617;27;45385;-75
2023/09/12 09:34:24;;;;;;;;;13.50;11.50;;;;;21.60;65.55;100791.03;5064247;27;46008;-71
2023/09/12 09:36:49;;;;;;;;;12.00;10.75;;;;;21.56;64.98;100795.72;5062642;27;45401;-72
2023/09/12 09:39:17;;;;;;;;;15.00;9.75;;;;;21.53;65.42;100787.09;5060292;28;45357;-71
2023/09/12 09:41:47;;;;;;;;;16.00;13.25;;;;;21.50;65.63;100780.22;5072601;27;45536;-72
2023/09/12 09:44:13;;;;;;;;;15.00;11.50;;;;;21.52;65.44;100788.09;5064161;27;45590;-73
2023/09/12 09:46:38;;;;;;;;;12.25;10.00;;;;;21.48;65.08;100799.91;5075825;28;46277;-73
2023/09/12 09:49:06;;;;;;;;;15.75;13.00;;;;;21.47;65.40;100804.38;5074000;27;45536;-73
2023/09/12 09:51:31;;;;;;;;;13.50;12.00;;;;;21.47;65.56;100800.88;5075374;27;45496;-72
2023/09/12 09:53:58;;;;;;;;;11.75;11.75;;;;;21.46;65.57;100799.16;5064136;28;45480;-74
2023/09/12 09:56:25;;;;;;;;;14.00;10.50;;;;;21.51;66.22;100818.31;5073331;27;46228;-74
2023/09/12 09:58:52;;;;;;;;;14.50;13.00;;;;;21.51;66.42;100831.63;5071262;27;45895;-75
2023/09/12 10:01:28;;;;;;;;;14.25;11.00;;;;;21.47;66.34;100831.00;5085911;27;45487;-73
2023/09/12 10:03:57;;;;;;;;;14.25;12.25;;;;;21.45;66.42;100838.22;5074039;27;45628;-72
2023/09/12 10:06:23;;;;;;;;;13.00;11.00;;;;;21.41;66.94;100842.91;5068564;28;45656;-71
2023/09/12 10:08:53;;;;;;;;;15.50;14.00;;;;;21.41;67.53;100858.91;5074013;28;73254;-70
2023/09/12 10:11:21;;;;;;;;;16.50;14.25;;;;;21.35;68.59;100861.97;5078514;28;45300;-71
2023/09/12 10:13:49;;;;;;;;;14.50;11.25;;;;;21.33;69.87;100858.56;5070807;28;45556;-70
2023/09/12 10:16:16;;;;;;;;;19.75;14.00;;;;;21.25;72.18;100863.59;5074009;28;45918;-71
2023/09/12 10:18:48;;;;;;;;;24.50;19.25;;;;;21.12;72.33;100876.06;5090893;27;45824;-71
2023/09/12 10:21:20;;;;;;;;;23.00;15.25;;;;;21.02;71.79;100876.69;5073724;27;45508;-71
2023/09/12 10:23:50;;;;;;;;;23.25;16.25;;;;;20.98;73.02;100871.66;5074444;28;45375;-73
2023/09/12 10:26:16;;;;;;;;;24.00;15.50;;;;;20.90;71.96;100872.22;5067378;28;45312;-78
2023/09/12 10:28:42;;;;;;;;;15.75;13.00;;;;;20.92;72.32;100866.78;5079290;27;45597;-71
2023/09/12 10:31:09;;;;;;;;;21.50;15.25;;;;;20.89;71.87;100873.16;5067445;27;45509;-71
2023/09/12 10:33:35;;;;;;;;;20.75;17.00;;;;;20.90;72.07;100871.38;5071935;28;45394;-72
2023/09/12 10:36:04;;;;;;;;;20.00;16.00;;;;;20.90;72.16;100869.53;5071190;27;45571;-72
2023/09/12 10:38:30;;;;;;;;;16.75;16.75;;;;;20.92;72.65;100872.94;5050929;28;46013;-71
2023/09/12 10:40:56;;;;;;;;;18.00;17.75;;;;;20.91;72.50;100865.94;5051604;27;45380;-72
2023/09/12 10:43:21;;;;;;;;;16.25;14.50;;;;;20.92;72.11;100869.44;5074207;27;45464;-73
2023/09/12 10:45:48;;;;;;;;;19.00;13.25;;;;;20.89;71.99;100861.66;5069905;27;45636;-72
2023/09/12 10:48:15;;;;;;;;;20.25;19.25;;;;;20.90;71.59;100856.25;5074477;27;45319;-70
2023/09/12 10:50:40;;;;;;;;;17.50;15.00;;;;;20.85;71.75;100853.88;5074227;27;45568;-72
2023/09/12 10:53:14;;;;;;;;;12.00;12.00;;;;;20.80;72.26;100858.66;5058262;27;53228;-72
2023/09/12 10:55:39;;;;;;;;;16.75;14.00;;;;;20.71;72.30;100856.63;5080364;27;46365;-72
2023/09/12 10:58:08;;;;;;;;;9.25;7.25;;;;;20.69;72.57;100853.25;5073416;28;45244;-73
2023/09/12 11:00:34;;;;;;;;;13.00;10.50;;;;;20.64;72.09;100847.38;5068808;28;45404;-70
2023/09/12 11:03:20;;;;;;;;;19.25;9.00;;;;;20.58;72.24;100845.94;5073359;28;45551;-70
2023/09/12 11:05:55;;;;;;;;;13.25;12.00;;;;;20.54;72.81;100841.81;5072201;27;46277;-71
2023/09/12 11:08:20;;;;;;;;;15.50;11.25;;;;;20.53;74.53;100844.56;5070457;27;45864;-69
2023/09/12 11:11:21;;;;;;;;;14.25;10.25;;;;;20.47;73.87;100836.03;5075301;27;45491;-69